createdAt,value
2022-09-20T00:02:15.040Z,1.50
2022-09-20T00:08:53.253Z,1.60
2022-09-20T00:11:23.445Z,1.75
2022-09-20T00:13:56.870Z,2.72
2022-09-20T00:16:28.830Z,3.55
2022-09-20T00:18:58.481Z,1.90
2022-09-20T00:21:31.256Z,2.83
2022-09-20T00:24:01.307Z,1.20
2022-09-20T00:26:31.148Z,2.47
2022-09-20T00:28:59.250Z,1.30
2022-09-20T00:31:27.053Z,1.65
2022-09-20T00:34:17.912Z,1.50
2022-09-20T00:36:47.568Z,2.13
2022-09-20T00:39:18.056Z,1.50
2022-09-20T00:41:50.820Z,1.95
2022-09-20T00:48:31.728Z,1.35
2022-09-20T00:51:11.376Z,1.58
2022-09-20T00:53:47.699Z,1.40
2022-09-20T00:56:28.573Z,1.08
2022-09-20T01:01:41.686Z,1.40
2022-09-20T01:05:27.994Z,1.17
2022-09-20T01:07:57.212Z,1.10
2022-09-20T01:10:26.940Z,1.88
2022-09-20T01:12:55.660Z,1.55
2022-09-20T01:16:15.110Z,3.63
2022-09-20T01:18:44.185Z,3.03
2022-09-20T01:21:13.506Z,1.50
2022-09-20T01:24:24.963Z,1.35
2022-09-20T01:27:11.955Z,1.40
2022-09-20T01:29:56.041Z,1.38
2022-09-20T01:32:40.364Z,2.67
2022-09-20T01:35:11.807Z,6.53
2022-09-20T01:37:59.332Z,1.20
2022-09-20T01:41:08.937Z,2.13
2022-09-20T01:44:31.059Z,1.50
2022-09-20T01:47:09.803Z,2.78
2022-09-20T01:49:52.207Z,1.65
2022-09-20T01:52:50.645Z,1.63
2022-09-20T01:55:25.804Z,1.92
2022-09-20T01:58:24.038Z,4.38
2022-09-20T02:01:13.139Z,1.00
2022-09-20T02:03:59.238Z,1.20
2022-09-20T02:06:52.604Z,1.92
2022-09-20T02:09:47.769Z,1.58
2022-09-20T02:12:35.929Z,1.42
2022-09-20T02:15:36.800Z,1.95
2022-09-20T02:18:43.959Z,1.58
2022-09-20T02:21:31.402Z,1.67
2022-09-20T02:24:21.248Z,3.08
2022-09-20T02:27:19.159Z,1.67
2022-09-20T02:29:58.515Z,1.58
2022-09-20T02:32:55.031Z,1.80
2022-09-20T02:35:38.962Z,1.73
2022-09-20T02:38:41.369Z,1.65
2022-09-20T02:41:11.794Z,1.35
2022-09-20T02:44:05.890Z,1.75
2022-09-20T02:46:45.955Z,1.60
2022-09-20T02:49:50.952Z,1.10
2022-09-20T02:52:32.794Z,2.92
2022-09-20T02:55:26.565Z,1.40
2022-09-20T02:58:10.848Z,2.75
2022-09-20T03:00:49.881Z,1.33
2022-09-20T03:03:41.206Z,3.13
2022-09-20T03:06:41.727Z,2.58
2022-09-20T03:09:31.393Z,1.63
2022-09-20T03:12:38.787Z,1.58
2022-09-20T03:15:22.484Z,3.03
2022-09-20T03:18:16.721Z,1.40
2022-09-20T03:21:05.763Z,1.60
2022-09-20T03:23:52.550Z,1.20
2022-09-20T03:26:48.854Z,2.53
2022-09-20T03:29:44.414Z,1.20
2022-09-20T03:32:40.596Z,2.70
2022-09-20T03:35:36.453Z,1.63
2022-09-20T03:38:18.859Z,1.50
2022-09-20T03:41:13.608Z,2.30
2022-09-20T03:44:02.371Z,1.20
2022-09-20T03:46:36.031Z,1.63
2022-09-20T03:49:19.923Z,5.60
2022-09-20T03:52:06.098Z,1.80
2022-09-20T03:54:55.129Z,1.60
2022-09-20T03:57:45.364Z,2.03
2022-09-20T04:00:34.345Z,1.63
2022-09-20T04:03:07.312Z,1.15
2022-09-20T04:05:34.818Z,1.42
2022-09-20T04:08:28.477Z,2.00
2022-09-20T04:11:25.260Z,2.88
2022-09-20T04:14:21.244Z,1.10
2022-09-20T04:17:41.892Z,1.60
2022-09-20T04:20:47.588Z,1.80
2022-09-20T04:23:52.022Z,1.55
2022-09-20T04:26:30.663Z,2.40
2022-09-20T04:29:14.730Z,1.70
2022-09-20T04:31:57.361Z,4.15
2022-09-20T04:35:01.513Z,2.42
2022-09-20T04:37:38.628Z,3.92
2022-09-20T04:40:32.251Z,2.03
2022-09-20T04:43:36.798Z,2.08
2022-09-20T04:46:04.886Z,3.70
2022-09-20T04:49:08.460Z,1.45
2022-09-20T04:52:14.130Z,2.78
2022-09-20T04:55:19.452Z,2.78
2022-09-20T04:58:12.153Z,2.10
2022-09-20T05:01:17.197Z,2.50
2022-09-20T05:04:12.597Z,6.72
2022-09-20T05:07:03.432Z,2.65
2022-09-20T05:09:48.743Z,4.85
2022-09-20T05:12:36.297Z,2.60
2022-09-20T05:15:41.467Z,2.05
2022-09-20T05:18:42.352Z,2.28
2022-09-20T05:21:46.782Z,4.82
2022-09-20T05:24:43.110Z,1.98
2022-09-20T05:27:23.464Z,1.52
2022-09-20T05:30:19.711Z,3.85
2022-09-20T05:33:22.322Z,2.75
2022-09-20T05:36:10.835Z,2.40
2022-09-20T05:40:15.805Z,1.40
2022-09-20T05:43:11.708Z,2.42
2022-09-20T05:46:16.642Z,2.42
2022-09-20T05:49:27.548Z,1.60
2022-09-20T05:53:27.620Z,2.28
2022-09-20T05:56:16.939Z,1.60
2022-09-20T05:59:23.755Z,2.00
2022-09-20T06:02:54.848Z,2.45
2022-09-20T06:07:32.367Z,3.08
2022-09-20T06:09:29.508Z,3.63
2022-09-20T06:12:19.189Z,2.38
2022-09-20T06:15:20.207Z,2.10
2022-09-20T06:18:08.183Z,1.33
2022-09-20T06:21:10.343Z,1.70
2022-09-20T06:23:42.907Z,2.65
2022-09-20T06:26:26.990Z,3.63
2022-09-20T06:29:04.351Z,2.70
2022-09-20T06:31:33.973Z,1.98
2022-09-20T06:34:09.203Z,1.67
2022-09-20T06:37:06.251Z,1.48
2022-09-20T06:40:11.255Z,2.25
2022-09-20T06:42:44.763Z,4.78
2022-09-20T06:45:23.919Z,1.88
2022-09-20T06:47:54.631Z,4.35
2022-09-20T06:50:24.995Z,3.67
2022-09-20T06:52:57.622Z,1.58
2022-09-20T06:55:35.136Z,1.67
2022-09-20T06:58:08.569Z,4.22
2022-09-20T07:00:40.460Z,4.78
2022-09-20T07:03:11.043Z,5.30
2022-09-20T07:05:39.607Z,4.18
2022-09-20T07:08:12.848Z,2.28
2022-09-20T07:10:43.682Z,1.40
2022-09-20T07:13:26.737Z,1.75
2022-09-20T07:16:04.143Z,2.05
2022-09-20T07:18:47.970Z,1.55
2022-09-20T07:21:19.515Z,14.45
2022-09-20T07:26:28.036Z,3.53
2022-09-20T07:29:00.871Z,1.70
2022-09-20T07:31:36.823Z,3.25
2022-09-20T07:34:36.602Z,3.83
2022-09-20T07:37:05.378Z,3.25
2022-09-20T07:39:35.138Z,3.38
2022-09-20T07:42:07.397Z,5.90
2022-09-20T07:44:34.832Z,1.63
2022-09-20T07:47:05.970Z,2.72
2022-09-20T07:49:33.398Z,1.30
2022-09-20T07:52:05.397Z,1.50
2022-09-20T07:54:32.963Z,3.08
2022-09-20T07:57:00.397Z,3.35
2022-09-20T07:59:35.636Z,3.25
2022-09-20T08:02:06.314Z,1.92
2022-09-20T08:05:54.631Z,2.92
2022-09-20T08:08:28.457Z,3.90
2022-09-20T08:11:07.568Z,1.83
2022-09-20T08:17:02.065Z,1.92
2022-09-20T08:19:45.535Z,1.88
2022-09-20T08:22:17.894Z,2.85
2022-09-20T08:25:01.743Z,1.40
2022-09-20T08:27:56.844Z,1.70
2022-09-20T08:30:33.575Z,1.55
2022-09-20T08:33:13.729Z,1.88
2022-09-20T08:35:44.032Z,1.73
2022-09-20T08:41:36.399Z,3.50
2022-09-20T08:44:57.868Z,1.75
2022-09-20T08:47:40.532Z,1.77
2022-09-20T08:50:17.615Z,2.72
2022-09-20T08:53:02.898Z,2.70
2022-09-20T08:55:37.742Z,3.10
2022-09-20T08:58:24.834Z,4.13
2022-09-20T09:01:03.282Z,1.63
2022-09-20T09:03:34.626Z,3.88
2022-09-20T09:09:47.606Z,3.15
2022-09-20T09:12:27.218Z,2.78
2022-09-20T09:15:06.645Z,1.70
2022-09-20T09:17:48.832Z,2.10
2022-09-20T09:20:24.290Z,2.38
2022-09-20T09:23:09.300Z,5.10
2022-09-20T09:25:41.034Z,2.53
2022-09-20T09:28:15.455Z,2.30
2022-09-20T09:30:47.907Z,1.60
2022-09-20T09:33:34.205Z,6.20
2022-09-20T09:36:18.928Z,2.60
2022-09-20T09:38:58.071Z,1.67
2022-09-20T09:41:37.184Z,1.83
2022-09-20T09:44:21.950Z,1.48
2022-09-20T09:47:02.763Z,3.40
2022-09-20T09:49:36.687Z,3.08
2022-09-20T09:52:24.867Z,2.35
2022-09-20T09:55:06.339Z,3.30
2022-09-20T09:57:56.043Z,1.70
2022-09-20T10:00:27.610Z,2.42
2022-09-20T10:02:56.948Z,3.03
2022-09-20T10:05:47.463Z,2.55
2022-09-20T10:08:55.202Z,1.60
2022-09-20T10:11:40.421Z,1.75
2022-09-20T10:14:24.968Z,5.50
2022-09-20T10:17:27.009Z,2.30
2022-09-20T10:20:15.406Z,2.95
2022-09-20T10:23:30.449Z,4.53
2022-09-20T10:26:42.961Z,1.30
2022-09-20T10:29:26.594Z,4.07
2022-09-20T10:32:17.708Z,1.65
2022-09-20T10:35:06.456Z,1.63
2022-09-20T10:38:12.394Z,1.50
2022-09-20T10:41:09.437Z,2.00
2022-09-20T10:43:46.016Z,1.98
2022-09-20T10:46:39.624Z,2.10
2022-09-20T10:49:25.213Z,2.50
2022-09-20T10:52:22.135Z,2.25
2022-09-20T10:55:11.771Z,1.55
2022-09-20T10:57:57.972Z,1.45
2022-09-20T11:00:39.498Z,1.60
2022-09-20T11:03:13.801Z,2.08
2022-09-20T11:05:47.311Z,2.28
2022-09-20T11:08:56.703Z,1.38
2022-09-20T11:11:42.151Z,1.40
2022-09-20T11:14:19.630Z,2.00
2022-09-20T11:16:57.061Z,2.28
2022-09-20T11:19:34.186Z,11.07
2022-09-20T11:22:19.572Z,3.83
2022-09-20T11:25:29.430Z,3.13
2022-09-20T11:28:25.880Z,2.42
2022-09-20T11:31:22.770Z,5.32
2022-09-20T11:34:10.790Z,2.63
2022-09-20T11:37:17.258Z,1.67
2022-09-20T11:40:00.479Z,4.88
2022-09-20T11:42:39.571Z,4.13
2022-09-20T11:45:40.936Z,3.03
2022-09-20T11:48:25.326Z,2.03
2022-09-20T11:51:06.169Z,3.58
2022-09-20T11:53:56.667Z,1.55
2022-09-20T11:56:28.250Z,4.20
2022-09-20T11:59:00.079Z,1.80
2022-09-20T12:01:34.932Z,5.55
2022-09-20T12:04:33.941Z,4.80
2022-09-20T12:07:27.086Z,2.08
2022-09-20T12:10:22.829Z,2.40
2022-09-20T12:12:58.061Z,1.73
2022-09-20T12:15:32.218Z,2.65
2022-09-20T12:18:26.848Z,5.10
2022-09-20T12:21:18.241Z,1.70
2022-09-20T12:24:09.895Z,1.73
2022-09-20T12:26:47.295Z,5.25
2022-09-20T12:29:23.986Z,2.08
2022-09-20T12:31:56.053Z,2.20
2022-09-20T12:34:26.596Z,4.45
2022-09-20T12:37:06.852Z,2.17
2022-09-20T12:39:40.377Z,3.20
2022-09-20T12:42:13.003Z,3.13
2022-09-20T12:45:09.524Z,4.18
2022-09-20T12:47:56.960Z,3.08
2022-09-20T12:50:47.370Z,3.28
2022-09-20T12:53:21.793Z,3.38
2022-09-20T12:56:13.296Z,6.80
2022-09-20T12:58:48.838Z,6.55
2022-09-20T13:01:40.388Z,4.15
2022-09-20T13:05:22.256Z,3.28
2022-09-20T13:07:44.234Z,1.90
2022-09-20T13:10:22.696Z,3.38
2022-09-20T13:12:55.740Z,3.15
2022-09-20T13:15:23.881Z,2.53
2022-09-20T13:17:56.699Z,3.67
2022-09-20T13:20:31.394Z,4.15
2022-09-20T13:23:00.736Z,1.77
2022-09-20T13:25:29.687Z,8.02
2022-09-20T13:28:53.806Z,2.70
2022-09-20T13:31:26.745Z,8.07
2022-09-20T13:33:55.426Z,2.42
2022-09-20T13:36:27.613Z,2.15
2022-09-20T13:38:57.656Z,6.93
2022-09-20T13:41:29.792Z,3.95
2022-09-20T13:46:44.842Z,1.77
2022-09-20T13:49:21.013Z,3.17
2022-09-20T13:51:49.914Z,2.15
2022-09-20T13:54:30.050Z,2.30
2022-09-20T13:57:12.700Z,3.20
2022-09-20T13:59:45.651Z,2.55
2022-09-20T14:02:38.747Z,2.63
2022-09-20T14:05:17.342Z,9.45
2022-09-20T14:07:47.152Z,6.78
2022-09-20T14:10:57.224Z,2.40
2022-09-20T14:13:24.764Z,3.45
2022-09-20T14:15:52.292Z,1.75
2022-09-20T14:18:31.791Z,4.85
2022-09-20T14:21:02.535Z,3.10
2022-09-20T14:23:43.883Z,2.78
2022-09-20T14:26:17.046Z,2.78
2022-09-20T14:28:49.043Z,3.65
2022-09-20T14:31:24.832Z,2.72
2022-09-20T14:33:58.057Z,2.67
2022-09-20T14:36:40.858Z,2.33
2022-09-20T14:43:28.715Z,4.22
2022-09-20T14:46:07.070Z,3.38
2022-09-20T14:48:40.480Z,3.83
2022-09-20T14:51:19.293Z,2.95
2022-09-20T14:54:13.840Z,2.95
2022-09-20T14:56:57.817Z,5.53
2022-09-20T14:59:27.531Z,2.05
2022-09-20T15:02:06.066Z,5.93
2022-09-20T15:04:37.987Z,3.20
2022-09-20T15:07:15.459Z,3.88
2022-09-20T15:09:43.098Z,10.13
2022-09-20T15:12:19.684Z,2.13
2022-09-20T15:14:55.205Z,3.70
2022-09-20T15:17:22.796Z,5.45
2022-09-20T15:19:50.476Z,3.30
2022-09-20T15:22:17.936Z,2.83
2022-09-20T15:24:49.910Z,3.55
2022-09-20T15:27:19.755Z,3.65
2022-09-20T15:29:47.405Z,6.90
2022-09-20T15:32:17.405Z,5.72
2022-09-20T15:34:50.090Z,2.85
2022-09-20T15:37:19.929Z,3.42
2022-09-20T15:39:48.599Z,4.47
2022-09-20T15:42:16.035Z,4.53
2022-09-20T15:44:44.514Z,6.78
2022-09-20T15:47:15.951Z,3.55
2022-09-20T15:49:46.832Z,3.80
2022-09-20T15:52:14.156Z,2.10
2022-09-20T15:54:41.735Z,2.83
2022-09-20T15:57:09.332Z,4.00
2022-09-20T15:59:36.732Z,5.20
2022-09-20T16:02:04.537Z,4.70
2022-09-20T16:04:35.238Z,6.68
2022-09-20T16:07:03.968Z,3.33
2022-09-20T16:09:35.157Z,6.40
2022-09-20T16:12:06.258Z,3.13
2022-09-20T16:14:34.972Z,6.57
2022-09-20T16:17:03.157Z,2.60
2022-09-20T16:19:30.896Z,4.97
2022-09-20T16:22:00.688Z,7.35
2022-09-20T16:24:31.542Z,4.43
2022-09-20T16:27:01.060Z,5.72
2022-09-20T16:29:30.646Z,6.90
2022-09-20T16:31:58.958Z,6.88
2022-09-20T16:34:37.946Z,7.45
2022-09-20T16:37:12.185Z,8.15
2022-09-20T16:39:42.093Z,4.82
2022-09-20T16:42:12.655Z,5.40
2022-09-20T16:44:43.466Z,4.35
2022-09-20T16:47:18.514Z,5.07
2022-09-20T16:49:48.650Z,5.20
2022-09-20T16:52:15.903Z,8.57
2022-09-20T16:54:46.105Z,5.68
2022-09-20T16:57:14.794Z,5.72
2022-09-20T16:59:45.575Z,5.00
2022-09-20T17:02:17.960Z,4.70
2022-09-20T17:04:47.668Z,5.38
2022-09-20T17:07:15.158Z,4.82
2022-09-20T17:09:45.257Z,6.18
2022-09-20T17:12:13.992Z,8.23
2022-09-20T17:14:44.080Z,5.75
2022-09-20T17:17:13.028Z,7.72
2022-09-20T17:19:40.421Z,7.32
2022-09-20T17:22:09.403Z,6.63
2022-09-20T17:24:37.085Z,4.18
2022-09-20T17:27:05.526Z,5.78
2022-09-20T17:29:36.109Z,4.95
2022-09-20T17:32:04.481Z,6.30
2022-09-20T17:34:34.753Z,6.05
2022-09-20T17:37:04.566Z,7.38
2022-09-20T17:39:31.920Z,9.85
2022-09-20T17:41:59.351Z,5.78
2022-09-20T17:44:35.498Z,11.98
2022-09-20T17:47:04.907Z,10.45
2022-09-20T17:49:32.435Z,14.23
2022-09-20T17:52:01.628Z,8.23
2022-09-20T17:54:33.279Z,5.80
2022-09-20T17:57:02.871Z,7.25
2022-09-20T17:59:34.553Z,4.22
2022-09-20T18:02:01.969Z,7.70
2022-09-20T18:04:29.550Z,6.68
2022-09-20T18:06:56.972Z,11.27
2022-09-20T18:09:27.353Z,15.02
2022-09-20T18:11:55.929Z,5.38
2022-09-20T18:14:25.959Z,6.00
2022-09-20T18:16:58.253Z,5.97
2022-09-20T18:19:33.077Z,8.55
2022-09-20T18:22:02.673Z,12.55
2022-09-20T18:24:32.734Z,8.35
2022-09-20T18:27:01.194Z,12.07
2022-09-20T18:32:06.501Z,7.70
2022-09-20T18:35:34.132Z,11.50
2022-09-20T18:38:05.327Z,10.05
2022-09-20T18:40:35.949Z,12.45
2022-09-20T18:43:09.608Z,9.48
2022-09-20T18:45:52.867Z,9.77
2022-09-20T18:49:43.241Z,8.30
2022-09-20T18:52:45.778Z,14.20
2022-09-20T18:55:29.044Z,12.38
2022-09-20T19:02:08.917Z,11.05
2022-09-20T19:05:18.901Z,10.20
2022-09-20T19:08:37.657Z,10.77
2022-09-20T19:11:15.478Z,7.88
2022-09-20T19:14:00.952Z,13.20
2022-09-20T19:16:42.071Z,13.10
2022-09-20T19:19:19.435Z,16.15
2022-09-20T19:28:19.332Z,14.25
2022-09-20T19:30:56.460Z,9.15
2022-09-20T19:33:28.223Z,12.93
2022-09-20T19:35:59.520Z,18.00
2022-09-20T19:38:48.214Z,9.57
2022-09-20T19:41:49.374Z,18.90
2022-09-20T19:44:29.074Z,11.13
2022-09-20T19:47:32.278Z,10.35
2022-09-20T19:50:18.130Z,12.45
2022-09-20T19:52:46.227Z,13.07
2022-09-20T19:55:15.667Z,13.63
2022-09-20T19:57:47.266Z,13.18
2022-09-20T20:00:18.854Z,11.88
2022-09-20T20:02:47.284Z,11.85
2022-09-20T20:12:49.196Z,17.33
2022-09-20T20:15:45.560Z,11.95
2022-09-20T20:18:41.610Z,15.45
2022-09-20T20:21:22.323Z,12.93
2022-09-20T20:23:52.642Z,14.98
2022-09-20T20:26:21.178Z,12.07
2022-09-20T20:28:55.032Z,11.40
2022-09-20T20:31:23.215Z,12.93
2022-09-20T20:33:51.864Z,17.08
2022-09-20T20:36:19.465Z,12.10
2022-09-20T20:38:50.052Z,15.45
2022-09-20T20:41:21.333Z,13.77
2022-09-20T20:43:57.397Z,11.68
2022-09-20T20:46:26.022Z,10.38
2022-09-20T20:48:53.804Z,9.80
2022-09-20T20:51:23.077Z,10.68
2022-09-20T20:54:00.961Z,11.88
2022-09-20T20:56:30.334Z,13.48
2022-09-20T20:59:35.376Z,10.80
2022-09-20T21:02:07.694Z,16.63
2022-09-20T21:04:39.556Z,11.98
2022-09-20T21:07:07.855Z,11.80
2022-09-20T21:09:37.795Z,12.48
2022-09-20T21:12:06.729Z,12.77
2022-09-20T21:14:35.576Z,14.75
2022-09-20T21:17:03.078Z,12.45
2022-09-20T21:19:30.421Z,14.55
2022-09-20T21:21:57.899Z,14.45
2022-09-20T21:24:28.093Z,16.73
2022-09-20T21:26:55.992Z,12.48
2022-09-20T21:29:23.456Z,11.18
2022-09-20T21:31:50.959Z,18.33
2022-09-20T21:34:18.355Z,11.23
2022-09-20T21:36:45.651Z,12.15
2022-09-20T21:39:13.419Z,15.73
2022-09-20T21:41:41.435Z,18.23
2022-09-20T21:44:15.195Z,12.45
2022-09-20T21:46:42.919Z,11.63
2022-09-20T21:49:12.253Z,34.40
2022-09-20T21:51:45.383Z,13.00
2022-09-20T21:54:16.436Z,13.38
2022-09-20T21:56:46.110Z,13.82
2022-09-20T21:59:13.580Z,20.55
2022-09-20T22:01:41.418Z,11.65
2022-09-20T22:04:15.259Z,22.70
2022-09-20T22:06:44.441Z,13.63
2022-09-20T22:09:16.509Z,21.88
2022-09-20T22:11:46.329Z,19.02
2022-09-20T22:14:18.771Z,21.08
2022-09-20T22:16:47.870Z,17.75
2022-09-20T22:19:18.850Z,15.70
2022-09-20T22:21:51.568Z,16.55
2022-09-20T22:25:10.188Z,17.73
2022-09-20T22:27:37.716Z,19.40
2022-09-20T22:30:07.731Z,25.70
2022-09-20T22:32:38.435Z,18.70
2022-09-20T22:35:06.225Z,18.55
2022-09-20T22:37:33.779Z,18.35
2022-09-20T22:40:01.106Z,30.63
2022-09-20T22:42:28.357Z,21.17
2022-09-20T22:44:56.257Z,19.58
2022-09-20T22:47:26.533Z,21.30
2022-09-20T22:49:54.555Z,22.42
2022-09-20T22:53:00.224Z,17.63
2022-09-20T22:56:02.069Z,17.58
2022-09-20T23:03:18.627Z,17.65
2022-09-20T23:05:47.001Z,15.68
2022-09-20T23:08:14.420Z,17.63
2022-09-20T23:10:41.699Z,18.23
2022-09-20T23:13:08.895Z,18.95
2022-09-20T23:15:38.351Z,15.18
2022-09-20T23:18:05.671Z,17.08
2022-09-20T23:20:33.681Z,14.20
2022-09-20T23:23:00.877Z,18.60
2022-09-20T23:25:29.218Z,15.75
2022-09-20T23:27:56.646Z,13.60
2022-09-20T23:30:24.298Z,19.60
2022-09-20T23:32:54.199Z,19.00
2022-09-20T23:35:21.744Z,14.45
2022-09-20T23:37:49.091Z,20.45
2022-09-20T23:40:16.498Z,14.88
2022-09-20T23:42:43.740Z,15.55
2022-09-20T23:45:12.187Z,16.30
2022-09-20T23:47:39.468Z,12.68
2022-09-20T23:50:07.849Z,17.20
2022-09-20T23:52:35.626Z,18.85
2022-09-20T23:55:04.488Z,20.55
2022-09-20T23:57:34.119Z,16.40
